createdAt,value
2019-06-08T00:00:22.624Z,73.67
2019-06-08T00:02:53.200Z,73.72
2019-06-08T00:05:23.772Z,73.27
2019-06-08T00:07:57.509Z,73.85
2019-06-08T00:10:28.157Z,74.32
2019-06-08T00:12:58.720Z,74.10
2019-06-08T00:15:29.352Z,73.88
2019-06-08T00:17:59.950Z,74.90
2019-06-08T00:20:30.523Z,75.47
2019-06-08T00:23:01.169Z,74.80
2019-06-08T00:25:31.820Z,74.33
2019-06-08T00:28:02.399Z,74.78
2019-06-08T00:30:32.980Z,74.70
2019-06-08T00:33:03.543Z,74.80
2019-06-08T00:35:34.157Z,74.20
2019-06-08T00:38:04.730Z,74.10
2019-06-08T00:40:35.392Z,73.87
2019-06-08T00:43:05.950Z,73.63
2019-06-08T00:45:36.611Z,73.51
2019-06-08T00:48:07.593Z,73.22
2019-06-08T00:50:38.194Z,73.32
2019-06-08T00:53:08.758Z,73.01
2019-06-08T00:55:39.373Z,72.91
2019-06-08T00:58:09.946Z,72.52
2019-06-08T01:00:42.891Z,72.20
2019-06-08T01:03:13.477Z,72.61
2019-06-08T01:05:44.130Z,72.43
2019-06-08T01:08:14.698Z,72.24
2019-06-08T01:10:46.536Z,72.27
2019-06-08T01:13:17.072Z,72.30
2019-06-08T01:15:47.659Z,72.19
2019-06-08T01:18:22.115Z,72.82
2019-06-08T01:20:52.617Z,72.64
2019-06-08T01:23:23.503Z,72.54
2019-06-08T01:25:54.092Z,72.15
2019-06-08T01:28:26.112Z,71.24
2019-06-08T01:30:56.748Z,71.42
2019-06-08T01:33:28.711Z,71.34
2019-06-08T01:35:59.366Z,71.65
2019-06-08T01:38:31.161Z,71.74
2019-06-08T01:41:01.851Z,71.84
2019-06-08T01:43:34.863Z,71.79
2019-06-08T01:46:05.573Z,71.60
2019-06-08T01:48:36.101Z,71.79
2019-06-08T01:51:06.682Z,71.89
2019-06-08T01:53:37.242Z,72.10
2019-06-08T01:56:07.840Z,72.59
2019-06-08T01:58:38.431Z,72.31
2019-06-08T02:01:11.355Z,71.99
2019-06-08T02:03:41.899Z,71.96
2019-06-08T02:06:12.517Z,71.82
2019-06-08T02:08:43.099Z,71.94
2019-06-08T02:11:16.804Z,71.98
2019-06-08T02:13:48.718Z,71.88
2019-06-08T02:16:19.375Z,71.75
2019-06-08T02:18:51.412Z,71.01
2019-06-08T02:21:23.216Z,71.89
2019-06-08T02:23:53.775Z,71.38
2019-06-08T02:26:27.060Z,71.08
2019-06-08T02:28:56.652Z,71.09
2019-06-08T02:31:27.950Z,71.49
2019-06-08T02:33:58.609Z,70.99
2019-06-08T02:36:33.756Z,70.73
2019-06-08T02:39:05.412Z,69.90
2019-06-08T02:41:37.527Z,70.81
2019-06-08T02:44:08.325Z,70.94
2019-06-08T02:46:42.291Z,70.78
2019-06-08T02:49:12.881Z,70.68
2019-06-08T02:51:44.826Z,70.99
2019-06-08T02:54:15.540Z,71.17
2019-06-08T02:56:48.012Z,71.54
2019-06-08T02:59:22.872Z,71.52
2019-06-08T03:01:58.981Z,71.60
2019-06-08T03:04:34.484Z,71.86
2019-06-08T03:07:06.274Z,71.67
2019-06-08T03:09:40.847Z,71.21
2019-06-08T03:12:11.345Z,70.78
2019-06-08T03:14:44.929Z,71.47
2019-06-08T03:17:15.508Z,71.70
2019-06-08T03:19:46.039Z,71.60
2019-06-08T03:22:18.378Z,72.01
2019-06-08T03:24:48.972Z,72.22
2019-06-08T03:27:19.577Z,72.22
2019-06-08T03:29:50.143Z,72.57
2019-06-08T03:32:21.006Z,72.70
2019-06-08T03:34:56.617Z,72.03
2019-06-08T03:37:27.238Z,71.65
2019-06-08T03:39:57.784Z,71.89
2019-06-08T03:42:28.349Z,71.17
2019-06-08T03:44:58.881Z,70.57
2019-06-08T03:47:29.496Z,70.43
2019-06-08T03:50:00.043Z,70.67
2019-06-08T03:52:32.392Z,70.72
2019-06-08T03:55:02.963Z,71.04
2019-06-08T03:57:35.751Z,71.79
2019-06-08T04:00:13.014Z,71.81
2019-06-08T04:02:42.143Z,72.46
2019-06-08T04:05:12.365Z,72.37
2019-06-08T04:07:45.885Z,72.37
2019-06-08T04:10:16.498Z,72.75
2019-06-08T04:12:47.151Z,72.63
2019-06-08T04:15:17.623Z,72.97
2019-06-08T04:17:51.079Z,72.60
2019-06-08T04:20:21.671Z,72.64
2019-06-08T04:22:52.267Z,72.81
2019-06-08T04:25:22.919Z,73.25
2019-06-08T04:27:53.505Z,73.60
2019-06-08T04:30:24.158Z,74.13
2019-06-08T04:32:54.775Z,74.51
2019-06-08T04:35:27.321Z,74.92
2019-06-08T04:37:57.774Z,74.70
2019-06-08T04:40:28.327Z,74.77
2019-06-08T04:42:58.969Z,74.94
2019-06-08T04:45:29.647Z,74.83
2019-06-08T04:48:00.257Z,74.69
2019-06-08T04:50:30.811Z,74.66
2019-06-08T04:53:01.405Z,74.46
2019-06-08T04:55:31.967Z,74.37
2019-06-08T04:58:02.652Z,74.03
2019-06-08T05:00:33.282Z,74.30
2019-06-08T05:03:03.852Z,74.39
2019-06-08T05:05:34.394Z,74.47
2019-06-08T05:08:05.054Z,74.53
2019-06-08T05:10:35.642Z,74.73
2019-06-08T05:13:06.357Z,74.72
2019-06-08T05:15:36.898Z,76.28
2019-06-08T05:18:09.683Z,74.97
2019-06-08T05:20:45.285Z,74.48
2019-06-08T05:23:15.021Z,74.94
2019-06-08T05:25:47.952Z,75.43
2019-06-08T05:28:18.669Z,75.84
2019-06-08T05:30:49.612Z,76.11
2019-06-08T05:33:20.510Z,76.33
2019-06-08T05:35:51.155Z,76.19
2019-06-08T05:38:21.840Z,76.36
2019-06-08T05:40:52.442Z,76.15
2019-06-08T05:43:23.095Z,76.24
2019-06-08T05:45:53.681Z,76.23
2019-06-08T05:48:24.297Z,76.88
2019-06-08T05:51:03.580Z,76.53
2019-06-08T05:53:27.228Z,76.67
2019-06-08T05:55:57.872Z,76.55
2019-06-08T05:58:28.517Z,77.08
2019-06-08T06:00:59.133Z,76.54
2019-06-08T06:03:29.759Z,76.74
2019-06-08T06:06:02.120Z,76.33
2019-06-08T06:08:32.772Z,76.04
2019-06-08T06:11:03.338Z,76.52
2019-06-08T06:13:34.004Z,76.84
2019-06-08T06:16:04.599Z,77.36
2019-06-08T06:18:35.253Z,76.79
2019-06-08T06:21:11.051Z,76.64
2019-06-08T06:23:38.142Z,77.02
2019-06-08T06:26:08.718Z,76.85
2019-06-08T06:28:39.372Z,76.64
2019-06-08T06:31:10.006Z,77.61
2019-06-08T06:33:41.900Z,76.97
2019-06-08T06:36:12.871Z,76.88
2019-06-08T06:38:43.808Z,77.33
2019-06-08T06:41:14.679Z,77.29
2019-06-08T06:43:45.864Z,76.37
2019-06-08T06:46:17.791Z,76.23
2019-06-08T06:48:48.394Z,76.25
2019-06-08T06:51:26.170Z,76.45
2019-06-08T06:53:53.299Z,76.11
2019-06-08T06:56:24.427Z,75.84
2019-06-08T06:58:55.077Z,76.18
2019-06-08T07:01:25.756Z,75.96
2019-06-08T07:03:56.346Z,76.13
2019-06-08T07:06:26.965Z,76.10
2019-06-08T07:08:59.967Z,76.02
2019-06-08T07:11:30.583Z,76.80
2019-06-08T07:14:01.234Z,75.89
2019-06-08T07:16:31.801Z,76.17
2019-06-08T07:19:02.485Z,75.85
2019-06-08T07:21:41.234Z,76.21
2019-06-08T07:24:05.777Z,76.34
2019-06-08T07:26:36.388Z,75.99
2019-06-08T07:29:07.093Z,75.96
2019-06-08T07:31:37.671Z,75.70
2019-06-08T07:34:08.306Z,75.95
2019-06-08T07:36:38.877Z,76.07
2019-06-08T07:39:09.664Z,76.14
2019-06-08T07:41:40.227Z,75.86
2019-06-08T07:44:10.874Z,75.80
2019-06-08T07:46:41.459Z,75.41
2019-06-08T07:49:14.571Z,75.57
2019-06-08T07:51:59.895Z,75.70
2019-06-08T07:54:17.541Z,75.93
2019-06-08T07:56:48.364Z,75.81
2019-06-08T07:59:20.660Z,75.45
2019-06-08T08:01:53.989Z,75.36
2019-06-08T08:04:24.955Z,75.70
2019-06-08T08:06:56.726Z,75.85
2019-06-08T08:09:27.574Z,75.86
2019-06-08T08:11:59.927Z,76.26
2019-06-08T08:14:30.577Z,75.95
2019-06-08T08:17:01.140Z,75.82
2019-06-08T08:19:31.746Z,75.56
2019-06-08T08:22:18.682Z,75.72
2019-06-08T08:24:34.755Z,75.95
2019-06-08T08:27:08.170Z,76.65
2019-06-08T08:29:38.402Z,75.20
2019-06-08T08:32:11.753Z,74.92
2019-06-08T08:34:42.423Z,74.77
2019-06-08T08:37:12.959Z,74.66
2019-06-08T08:39:43.555Z,75.19
2019-06-08T08:42:14.120Z,74.82
2019-06-08T08:44:44.756Z,75.16
2019-06-08T08:47:15.353Z,74.63
2019-06-08T08:49:47.911Z,74.45
2019-06-08T08:52:18.304Z,74.69
2019-06-08T08:54:52.378Z,75.02
2019-06-08T08:57:23.063Z,74.64
2019-06-08T08:59:56.299Z,74.28
2019-06-08T09:02:27.716Z,74.26
2019-06-08T09:05:02.060Z,74.54
2019-06-08T09:07:30.724Z,73.86
2019-06-08T09:10:03.503Z,71.95
2019-06-08T09:12:33.687Z,71.14
2019-06-08T09:15:04.609Z,71.01
2019-06-08T09:17:35.165Z,70.98
2019-06-08T09:20:08.871Z,71.08
2019-06-08T09:22:52.349Z,72.86
2019-06-08T09:25:13.538Z,71.78
2019-06-08T09:27:43.526Z,70.62
2019-06-08T09:30:14.468Z,69.05
2019-06-08T09:32:47.579Z,69.58
2019-06-08T09:35:20.833Z,69.36
2019-06-08T09:37:49.777Z,70.30
2019-06-08T09:40:21.171Z,70.08
2019-06-08T09:42:56.077Z,70.92
2019-06-08T09:45:24.161Z,68.91
2019-06-08T09:47:59.705Z,68.65
2019-06-08T09:50:29.399Z,68.63
2019-06-08T09:53:14.959Z,67.24
2019-06-08T09:55:32.371Z,67.38
2019-06-08T09:58:06.701Z,68.11
2019-06-08T10:00:37.697Z,68.19
2019-06-08T10:03:09.502Z,67.78
2019-06-08T10:05:39.966Z,66.01
2019-06-08T10:08:10.546Z,66.60
2019-06-08T10:10:41.184Z,66.78
2019-06-08T10:13:11.792Z,65.82
2019-06-08T10:15:42.373Z,65.90
2019-06-08T10:18:12.987Z,66.29
2019-06-08T10:20:43.593Z,65.29
2019-06-08T10:23:30.363Z,64.90
2019-06-08T10:25:48.168Z,65.27
2019-06-08T10:28:21.579Z,65.28
2019-06-08T10:30:51.160Z,65.10
2019-06-08T10:33:21.778Z,65.86
2019-06-08T10:35:52.477Z,65.12
2019-06-08T10:38:23.033Z,63.40
2019-06-08T10:41:10.459Z,64.03
2019-06-08T10:43:38.632Z,64.04
2019-06-08T10:46:16.093Z,64.70
2019-06-08T10:48:41.108Z,64.90
2019-06-08T10:51:13.148Z,64.41
2019-06-08T10:53:52.693Z,62.34
2019-06-08T10:56:18.649Z,63.65
2019-06-08T10:58:49.799Z,62.71
2019-06-08T11:01:20.772Z,62.31
2019-06-08T11:03:51.319Z,62.26
2019-06-08T11:06:21.944Z,62.06
2019-06-08T11:08:52.496Z,63.08
2019-06-08T11:11:23.185Z,62.95
2019-06-08T11:13:53.747Z,65.20
2019-06-08T11:16:24.410Z,62.85
2019-06-08T11:18:54.997Z,62.02
2019-06-08T11:21:25.587Z,60.39
2019-06-08T11:24:07.632Z,60.46
2019-06-08T11:26:29.015Z,60.67
2019-06-08T11:29:01.568Z,59.90
2019-06-08T11:31:32.476Z,60.10
2019-06-08T11:34:04.006Z,60.56
2019-06-08T11:36:35.217Z,60.90
2019-06-08T11:39:12.528Z,60.85
2019-06-08T11:41:42.659Z,61.10
2019-06-08T11:44:14.830Z,60.99
2019-06-08T11:46:47.632Z,60.82
2019-06-08T11:49:18.705Z,61.87
2019-06-08T11:51:50.969Z,59.89
2019-06-08T11:54:36.497Z,60.66
2019-06-08T11:56:57.495Z,59.88
2019-06-08T11:59:28.893Z,60.64
2019-06-08T12:02:01.887Z,60.28
2019-06-08T12:04:32.851Z,60.58
2019-06-08T12:07:04.100Z,59.85
2019-06-08T12:09:35.088Z,58.77
2019-06-08T12:12:09.019Z,58.95
2019-06-08T12:14:40.494Z,57.95
2019-06-08T12:17:17.948Z,57.96
2019-06-08T12:19:44.449Z,58.90
2019-06-08T12:22:17.946Z,58.55
2019-06-08T12:24:49.035Z,60.27
2019-06-08T12:27:29.528Z,58.01
2019-06-08T12:29:51.969Z,58.01
2019-06-08T12:32:22.564Z,57.73
2019-06-08T12:34:55.238Z,57.68
2019-06-08T12:37:27.553Z,58.05
2019-06-08T12:40:01.290Z,56.12
2019-06-08T12:42:30.774Z,56.43
2019-06-08T12:45:01.358Z,56.37
2019-06-08T12:47:32.034Z,56.60
2019-06-08T12:50:02.630Z,58.54
2019-06-08T12:52:35.238Z,58.25
2019-06-08T12:55:11.317Z,56.85
2019-06-08T12:57:38.159Z,55.73
2019-06-08T13:00:11.433Z,57.07
2019-06-08T13:02:42.044Z,56.44
2019-06-08T13:05:21.532Z,56.08
2019-06-08T13:07:50.843Z,55.70
2019-06-08T13:10:24.191Z,56.95
2019-06-08T13:12:55.082Z,54.66
2019-06-08T13:15:27.729Z,54.91
2019-06-08T13:17:59.252Z,54.95
2019-06-08T13:20:29.943Z,54.32
2019-06-08T13:23:02.038Z,53.97
2019-06-08T13:25:40.079Z,53.79
2019-06-08T13:28:04.934Z,54.39
2019-06-08T13:30:35.515Z,53.81
2019-06-08T13:33:08.173Z,52.34
2019-06-08T13:35:39.501Z,51.71
2019-06-08T13:38:10.583Z,51.11
2019-06-08T13:40:42.795Z,52.79
2019-06-08T13:43:19.792Z,52.20
2019-06-08T13:45:51.599Z,50.97
2019-06-08T13:48:23.354Z,49.41
2019-06-08T13:50:59.206Z,49.96
2019-06-08T13:53:32.396Z,50.07
2019-06-08T13:56:03.011Z,50.15
2019-06-08T13:58:33.871Z,50.31
2019-06-08T14:01:04.400Z,50.85
2019-06-08T14:03:38.999Z,50.82
2019-06-08T14:06:08.834Z,51.44
2019-06-08T14:08:40.186Z,50.00
2019-06-08T14:11:10.772Z,50.87
2019-06-08T14:13:41.368Z,49.24
2019-06-08T14:16:11.950Z,48.29
2019-06-08T14:18:42.601Z,47.83
2019-06-08T14:21:21.432Z,49.67
2019-06-08T14:23:48.524Z,48.17
2019-06-08T14:26:20.129Z,48.44
2019-06-08T14:28:53.968Z,48.80
2019-06-08T14:31:25.249Z,48.60
2019-06-08T14:33:56.178Z,48.76
2019-06-08T14:36:29.079Z,46.91
2019-06-08T14:39:02.351Z,48.16
2019-06-08T14:41:33.158Z,48.18
2019-06-08T14:44:03.788Z,47.58
2019-06-08T14:46:34.450Z,48.35
2019-06-08T14:49:06.276Z,49.07
2019-06-08T14:51:52.943Z,49.03
2019-06-08T14:54:27.204Z,48.38
2019-06-08T14:56:57.755Z,48.58
2019-06-08T14:59:30.394Z,48.18
2019-06-08T15:02:00.953Z,48.55
2019-06-08T15:04:36.001Z,46.81
2019-06-08T15:07:03.877Z,47.08
2019-06-08T15:09:34.789Z,46.87
2019-06-08T15:12:05.511Z,47.28
2019-06-08T15:14:38.391Z,46.88
2019-06-08T15:17:08.752Z,46.56
2019-06-08T15:19:39.432Z,46.22
2019-06-08T15:22:11.227Z,45.31
2019-06-08T15:24:45.158Z,45.62
2019-06-08T15:27:20.944Z,45.50
2019-06-08T15:29:51.215Z,45.49
2019-06-08T15:32:22.910Z,45.35
2019-06-08T15:34:54.200Z,45.36
2019-06-08T15:37:28.127Z,45.45
2019-06-08T15:39:59.502Z,45.53
2019-06-08T15:42:31.645Z,44.35
2019-06-08T15:45:02.384Z,44.39
2019-06-08T15:47:32.989Z,44.67
2019-06-08T15:50:03.615Z,43.88
2019-06-08T15:52:34.373Z,43.62
2019-06-08T15:55:05.218Z,43.56
2019-06-08T15:57:40.335Z,43.76
2019-06-08T16:00:10.273Z,43.25
2019-06-08T16:02:41.103Z,43.25
2019-06-08T16:05:11.775Z,43.46
2019-06-08T16:07:42.332Z,43.65
2019-06-08T16:10:16.358Z,43.67
2019-06-08T16:12:46.954Z,44.27
2019-06-08T16:15:17.641Z,44.91
2019-06-08T16:17:48.242Z,44.70
2019-06-08T16:20:18.807Z,45.43
2019-06-08T16:22:51.399Z,46.42
2019-06-08T16:25:21.964Z,46.25
2019-06-08T16:27:52.560Z,46.53
2019-06-08T16:30:23.148Z,46.72
2019-06-08T16:32:53.727Z,46.13
2019-06-08T16:35:24.321Z,46.20
2019-06-08T16:37:54.926Z,46.36
2019-06-08T16:40:25.525Z,45.61
2019-06-08T16:42:56.136Z,45.30
2019-06-08T16:45:27.001Z,45.28
2019-06-08T16:47:57.685Z,43.99
2019-06-08T16:50:28.267Z,43.49
2019-06-08T16:53:00.967Z,43.56
2019-06-08T16:55:32.074Z,43.63
2019-06-08T16:58:02.797Z,42.79
2019-06-08T17:00:39.019Z,42.69
2019-06-08T17:03:08.217Z,42.21
2019-06-08T17:05:38.944Z,41.18
2019-06-08T17:08:09.525Z,40.88
2019-06-08T17:10:41.108Z,40.75
2019-06-08T17:13:12.231Z,41.14
2019-06-08T17:15:42.857Z,40.36
2019-06-08T17:18:16.297Z,40.52
2019-06-08T17:20:47.826Z,40.41
2019-06-08T17:23:18.744Z,40.80
2019-06-08T17:25:49.363Z,40.67
2019-06-08T17:28:21.378Z,40.59
2019-06-08T17:30:52.008Z,40.76
2019-06-08T17:33:22.645Z,41.63
2019-06-08T17:35:55.035Z,41.84
2019-06-08T17:38:25.667Z,42.62
2019-06-08T17:40:56.276Z,43.19
2019-06-08T17:43:26.859Z,43.53
2019-06-08T17:45:57.448Z,44.67
2019-06-08T17:48:28.072Z,44.34
2019-06-08T17:50:58.659Z,45.24
2019-06-08T17:53:29.340Z,45.08
2019-06-08T17:55:59.952Z,45.06
2019-06-08T17:58:30.593Z,45.20
2019-06-08T18:01:01.255Z,45.56
2019-06-08T18:03:31.763Z,45.83
2019-06-08T18:06:04.331Z,46.18
2019-06-08T18:08:38.818Z,46.65
2019-06-08T18:11:08.048Z,46.95
2019-06-08T18:13:42.158Z,47.93
2019-06-08T18:16:11.076Z,48.28
2019-06-08T18:18:43.239Z,48.38
2019-06-08T18:21:14.095Z,48.89
2019-06-08T18:23:45.312Z,49.41
2019-06-08T18:26:17.259Z,49.86
2019-06-08T18:28:48.568Z,50.72
2019-06-08T18:31:19.355Z,52.35
2019-06-08T18:33:52.606Z,52.95
2019-06-08T18:36:23.159Z,53.48
2019-06-08T18:38:53.740Z,54.05
2019-06-08T18:41:24.325Z,54.34
2019-06-08T18:43:54.996Z,54.72
2019-06-08T18:46:27.220Z,55.45
2019-06-08T18:48:58.025Z,57.08
2019-06-08T18:51:28.645Z,57.58
2019-06-08T18:54:08.678Z,58.71
2019-06-08T18:56:31.580Z,59.15
2019-06-08T18:59:02.189Z,60.32
2019-06-08T19:01:32.832Z,61.04
2019-06-08T19:04:03.406Z,61.80
2019-06-08T19:06:34.643Z,61.79
2019-06-08T19:09:07.579Z,62.34
2019-06-08T19:11:39.437Z,63.32
2019-06-08T19:14:12.473Z,63.84
2019-06-08T19:16:45.891Z,64.20
2019-06-08T19:19:21.197Z,64.88
2019-06-08T19:21:51.798Z,65.21
2019-06-08T19:24:22.408Z,65.80
2019-06-08T19:26:57.857Z,66.23
2019-06-08T19:29:28.790Z,66.29
2019-06-08T19:32:00.486Z,66.75
2019-06-08T19:34:33.409Z,66.85
2019-06-08T19:37:04.446Z,66.79
2019-06-08T19:39:35.075Z,68.53
2019-06-08T19:42:07.884Z,68.74
2019-06-08T19:44:40.457Z,67.96
2019-06-08T19:47:11.366Z,68.99
2019-06-08T19:49:42.836Z,69.18
2019-06-08T19:52:13.408Z,69.71
2019-06-08T19:54:52.116Z,70.81
2019-06-08T19:57:17.567Z,69.98
2019-06-08T19:59:48.253Z,69.50
2019-06-08T20:02:18.807Z,69.78
2019-06-08T20:04:49.386Z,69.81
2019-06-08T20:07:19.988Z,70.17
2019-06-08T20:09:50.816Z,70.44
2019-06-08T20:12:21.452Z,71.60
2019-06-08T20:14:52.032Z,71.07
2019-06-08T20:17:22.687Z,71.24
2019-06-08T20:19:53.476Z,71.15
2019-06-08T20:22:24.106Z,71.47
2019-06-08T20:24:56.058Z,71.71
2019-06-08T20:27:27.707Z,71.55
2019-06-08T20:29:58.444Z,74.45
2019-06-08T20:32:28.995Z,74.45
2019-06-08T20:34:59.568Z,73.99
2019-06-08T20:37:30.235Z,74.20
2019-06-08T20:40:10.190Z,74.10
2019-06-08T20:42:37.872Z,74.89
2019-06-08T20:45:08.370Z,77.45
2019-06-08T20:47:39.234Z,77.79
2019-06-08T20:50:10.549Z,77.22
2019-06-08T20:52:42.542Z,76.69
2019-06-08T20:55:13.583Z,76.48
2019-06-08T20:57:47.755Z,76.33
2019-06-08T21:00:18.438Z,76.94
2019-06-08T21:02:51.543Z,76.73
2019-06-08T21:05:21.465Z,76.36
2019-06-08T21:07:53.910Z,76.84
2019-06-08T21:10:24.564Z,78.03
2019-06-08T21:12:56.426Z,77.67
2019-06-08T21:15:27.649Z,77.93
2019-06-08T21:17:58.201Z,77.72
2019-06-08T21:20:28.878Z,77.98
2019-06-08T21:22:59.957Z,78.06
2019-06-08T21:25:30.679Z,79.27
2019-06-08T21:28:01.292Z,80.06
2019-06-08T21:30:31.868Z,80.01
2019-06-08T21:33:02.622Z,79.92
2019-06-08T21:35:33.168Z,79.85
2019-06-08T21:38:20.339Z,80.49
2019-06-08T21:40:40.014Z,81.82
2019-06-08T21:43:10.641Z,81.53
2019-06-08T21:45:41.221Z,81.50
2019-06-08T21:48:11.834Z,81.38
2019-06-08T21:50:49.019Z,82.09
2019-06-08T21:53:19.236Z,82.00
2019-06-08T21:55:50.691Z,81.63
2019-06-08T21:58:21.391Z,81.70
2019-06-08T22:00:54.745Z,82.08
2019-06-08T22:03:25.490Z,82.08
2019-06-08T22:05:58.470Z,82.31
2019-06-08T22:08:28.393Z,82.18
2019-06-08T22:11:00.352Z,82.18
2019-06-08T22:13:31.351Z,82.69
2019-06-08T22:16:03.993Z,84.00
2019-06-08T22:18:37.838Z,84.34
2019-06-08T22:21:08.242Z,83.67
2019-06-08T22:23:39.024Z,83.57
2019-06-08T22:26:09.558Z,83.34
2019-06-08T22:28:40.192Z,83.57
2019-06-08T22:31:10.775Z,83.29
2019-06-08T22:33:41.440Z,83.67
2019-06-08T22:36:12.714Z,83.78
2019-06-08T22:38:43.204Z,84.80
2019-06-08T22:41:13.779Z,86.11
2019-06-08T22:43:44.389Z,85.27
2019-06-08T22:46:17.645Z,86.28
2019-06-08T22:48:48.810Z,86.84
2019-06-08T22:51:19.394Z,86.32
2019-06-08T22:53:50.034Z,86.21
2019-06-08T22:56:20.585Z,87.27
2019-06-08T22:58:51.184Z,87.00
2019-06-08T23:01:22.878Z,86.34
2019-06-08T23:03:53.684Z,86.46
2019-06-08T23:06:27.939Z,86.82
2019-06-08T23:09:00.727Z,86.41
2019-06-08T23:11:30.662Z,86.12
2019-06-08T23:14:02.902Z,86.38
2019-06-08T23:16:33.509Z,86.36
2019-06-08T23:19:05.169Z,86.44
2019-06-08T23:21:38.103Z,86.09
2019-06-08T23:24:08.637Z,86.04
2019-06-08T23:26:39.192Z,87.08
2019-06-08T23:29:09.838Z,86.68
2019-06-08T23:31:41.737Z,86.68
2019-06-08T23:34:12.365Z,87.58
2019-06-08T23:36:55.349Z,88.19
2019-06-08T23:39:17.830Z,87.59
2019-06-08T23:41:48.307Z,87.67
2019-06-08T23:44:18.958Z,88.04
2019-06-08T23:46:49.528Z,88.01
2019-06-08T23:49:20.192Z,88.93
2019-06-08T23:51:50.756Z,88.77
2019-06-08T23:54:21.311Z,88.69
2019-06-08T23:56:51.893Z,89.26
2019-06-08T23:59:22.495Z,89.24
